Time;durP1;ratioP1;P1;durP2;ratioP2;P2;SDS_P1;SDS_P2;PMS_P1;PMS_P2;Temp;Humidity;BMP_temperature;BMP_pressure;BME280_temperature;BME280_humidity;BME280_pressure;Samples;Min_cycle;Max_cycle;Signal;HPM_P1;HPM_P2
2024/03/28 00:01:04;;;;;;;3.10;1.48;;;9.70;79.80;;;;;;4990795;28;20157;-64
2024/03/28 00:03:30;;;;;;;1.48;1.17;;;9.70;79.80;;;;;;4986651;28;20057;-65
2024/03/28 00:05:57;;;;;;;2.63;1.50;;;9.70;79.80;;;;;;4972770;28;20031;-64
2024/03/28 00:08:24;;;;;;;3.35;1.45;;;9.70;79.80;;;;;;4981981;28;20070;-65
2024/03/28 00:10:50;;;;;;;3.70;1.42;;;9.70;79.70;;;;;;4990421;28;20049;-64
2024/03/28 00:13:17;;;;;;;4.00;1.67;;;9.70;79.80;;;;;;4987978;28;20038;-64
2024/03/28 00:15:43;;;;;;;3.20;1.90;;;9.70;79.80;;;;;;4990030;28;20488;-67
2024/03/28 00:18:09;;;;;;;2.45;1.45;;;9.70;79.80;;;;;;4989541;28;20022;-67
2024/03/28 00:20:35;;;;;;;1.80;1.30;;;9.70;79.80;;;;;;4987625;28;20033;-67
2024/03/28 00:23:02;;;;;;;1.52;1.15;;;9.70;79.80;;;;;;4982823;28;20118;-67
2024/03/28 00:25:30;;;;;;;3.83;1.65;;;9.70;79.80;;;;;;4987689;28;20117;-67
2024/03/28 00:27:57;;;;;;;2.13;1.35;;;9.70;79.80;;;;;;4989384;28;20049;-67
2024/03/28 00:30:23;;;;;;;1.73;1.13;;;9.70;79.80;;;;;;4990324;28;20401;-67
2024/03/28 00:32:49;;;;;;;1.85;1.40;;;9.60;79.80;;;;;;4990319;28;20042;-67
2024/03/28 00:35:17;;;;;;;2.85;1.60;;;9.70;79.80;;;;;;4970295;28;20476;-64
2024/03/28 00:37:43;;;;;;;12.63;2.28;;;9.70;79.90;;;;;;4966943;28;20026;-64
2024/03/28 00:40:09;;;;;;;2.22;1.38;;;9.60;79.90;;;;;;4969610;28;20027;-65
2024/03/28 00:42:35;;;;;;;1.65;1.48;;;9.60;79.90;;;;;;4986050;28;20041;-64
2024/03/28 00:45:02;;;;;;;2.50;1.63;;;9.70;79.90;;;;;;4990268;28;20030;-64
2024/03/28 00:47:28;;;;;;;3.45;1.75;;;9.70;80.00;;;;;;4989982;28;20029;-64
2024/03/28 00:49:53;;;;;;;1.67;1.00;;;9.70;80.00;;;;;;4989440;28;20749;-67
2024/03/28 00:52:19;;;;;;;2.63;1.40;;;9.70;80.00;;;;;;4972448;28;20054;-67
2024/03/28 00:54:45;;;;;;;3.45;1.63;;;9.70;80.00;;;;;;4989772;28;20386;-67
2024/03/28 00:57:11;;;;;;;3.33;1.70;;;9.70;80.00;;;;;;4989554;28;20403;-68
2024/03/28 00:59:37;;;;;;;3.95;1.63;;;9.70;80.00;;;;;;4968343;28;20045;-64
2024/03/28 01:02:03;;;;;;;2.22;1.45;;;9.70;80.00;;;;;;4987413;28;20489;-64
2024/03/28 01:04:29;;;;;;;4.32;1.67;;;9.70;80.60;;;;;;4989369;28;20540;-65
2024/03/28 01:06:54;;;;;;;1.98;1.30;;;9.70;80.00;;;;;;4990107;28;20027;-67
2024/03/28 01:09:21;;;;;;;2.75;1.15;;;9.70;80.00;;;;;;4971467;28;20038;-67
2024/03/28 01:11:47;;;;;;;2.33;1.50;;;9.70;80.00;;;;;;4986706;28;20511;-67
2024/03/28 01:14:13;;;;;;;2.70;1.83;;;9.70;80.50;;;;;;4989629;28;20042;-67
2024/03/28 01:16:38;;;;;;;3.25;1.73;;;9.70;80.00;;;;;;4989668;28;20466;-67
2024/03/28 01:19:04;;;;;;;3.42;1.60;;;9.70;80.00;;;;;;4955754;28;20026;-67
2024/03/28 01:21:30;;;;;;;2.40;1.45;;;9.70;80.10;;;;;;4989670;28;20078;-64
2024/03/28 01:23:56;;;;;;;2.42;1.45;;;9.70;80.00;;;;;;4985986;28;20117;-65
2024/03/28 01:26:22;;;;;;;3.63;1.80;;;9.70;80.10;;;;;;4971914;28;20069;-64
2024/03/28 01:28:47;;;;;;;2.30;1.40;;;9.70;80.10;;;;;;4988004;28;20041;-64
2024/03/28 01:31:13;;;;;;;10.02;1.25;;;9.70;80.20;;;;;;4987698;28;20026;-65
2024/03/28 01:33:39;;;;;;;1.85;1.50;;;9.70;80.20;;;;;;4990234;28;20114;-64
2024/03/28 01:36:05;;;;;;;2.90;2.08;;;9.70;80.20;;;;;;4989995;28;20433;-65
2024/03/28 01:38:30;;;;;;;2.72;1.55;;;9.60;80.20;;;;;;4993030;28;20369;-64
2024/03/28 01:40:57;;;;;;;2.08;1.65;;;9.60;80.30;;;;;;4992784;28;20042;-64
2024/03/28 01:43:23;;;;;;;2.60;1.58;;;9.60;80.30;;;;;;4981106;28;20117;-64
2024/03/28 01:45:50;;;;;;;2.15;1.58;;;9.60;80.30;;;;;;4953996;28;20047;-64
2024/03/28 01:48:16;;;;;;;2.55;1.65;;;9.60;80.40;;;;;;4983490;28;20061;-65
2024/03/28 01:50:42;;;;;;;1.65;1.23;;;9.70;80.40;;;;;;4987510;28;20035;-67
2024/03/28 01:53:09;;;;;;;1.73;1.42;;;9.70;80.30;;;;;;4993266;28;20057;-67
2024/03/28 01:55:36;;;;;;;1.73;1.20;;;9.70;80.30;;;;;;4993227;28;20027;-68
2024/03/28 01:58:04;;;;;;;3.85;2.03;;;9.70;80.30;;;;;;4991733;28;20026;-68
2024/03/28 02:00:31;;;;;;;2.53;1.63;;;9.70;80.30;;;;;;4993370;28;20513;-67
2024/03/28 02:02:57;;;;;;;2.40;1.00;;;9.70;80.30;;;;;;4993219;28;20029;-68
2024/03/28 02:05:23;;;;;;;2.90;1.35;;;9.70;80.30;;;;;;4987583;28;20026;-67
2024/03/28 02:07:51;;;;;;;2.20;1.33;;;9.70;80.30;;;;;;4992977;28;20026;-67
2024/03/28 02:10:17;;;;;;;2.03;1.42;;;9.80;80.30;;;;;;4988158;28;20445;-67
2024/03/28 02:12:44;;;;;;;1.85;1.33;;;9.70;80.20;;;;;;4993609;28;20439;-65
2024/03/28 02:15:09;;;;;;;2.80;1.40;;;9.80;80.30;;;;;;4991829;28;20018;-65
2024/03/28 02:17:46;;;;;;;3.30;1.83;;;9.80;80.30;;;;;;4975654;28;20030;-64
2024/03/28 02:20:12;;;;;;;2.40;1.65;;;9.80;80.40;;;;;;4973470;28;20077;-65
2024/03/28 02:22:38;;;;;;;3.08;1.70;;;9.80;80.30;;;;;;4975934;28;20038;-65
2024/03/28 02:25:06;;;;;;;3.00;1.55;;;9.80;80.40;;;;;;4992672;28;20034;-65
2024/03/28 02:27:34;;;;;;;2.67;1.33;;;9.80;80.30;;;;;;4991097;28;20026;-65
2024/03/28 02:30:00;;;;;;;1.38;0.98;;;9.80;80.40;;;;;;4987745;28;20030;-65
2024/03/28 02:32:27;;;;;;;2.35;1.27;;;9.80;80.40;;;;;;4988067;28;20490;-67
2024/03/28 02:34:53;;;;;;;1.25;1.10;;;9.80;80.40;;;;;;4991372;28;20030;-67
2024/03/28 02:37:18;;;;;;;1.33;1.10;;;9.80;80.40;;;;;;4992941;28;20146;-67
2024/03/28 02:39:46;;;;;;;3.80;1.50;;;9.80;80.40;;;;;;4974218;28;20101;-67
2024/03/28 02:42:12;;;;;;;1.77;1.38;;;9.80;80.40;;;;;;4992155;28;20053;-67
2024/03/28 02:44:38;;;;;;;1.77;1.15;;;9.80;80.40;;;;;;4973720;28;20030;-67
2024/03/28 02:47:04;;;;;;;1.85;1.38;;;9.80;80.40;;;;;;4991127;28;20037;-67
2024/03/28 02:49:29;;;;;;;2.45;1.30;;;9.90;80.40;;;;;;4991692;28;20057;-67
2024/03/28 02:51:55;;;;;;;1.30;1.20;;;9.80;80.40;;;;;;4990572;28;20054;-67
2024/03/28 02:54:21;;;;;;;4.60;1.52;;;9.80;80.40;;;;;;4991767;28;20397;-67
2024/03/28 02:56:51;;;;;;;2.45;1.60;;;9.80;80.40;;;;;;4989374;28;20042;-67
2024/03/28 02:59:17;;;;;;;2.17;1.30;;;9.90;80.50;;;;;;4973592;28;20089;-67
2024/03/28 03:01:44;;;;;;;2.53;1.10;;;9.90;80.40;;;;;;4969987;28;20027;-67
2024/03/28 03:04:09;;;;;;;2.08;1.20;;;9.90;80.40;;;;;;4988201;28;20058;-67
2024/03/28 03:06:35;;;;;;;1.63;1.08;;;9.90;80.40;;;;;;4988465;28;20062;-67
2024/03/28 03:09:01;;;;;;;1.95;1.65;;;9.80;81.00;;;;;;4986960;28;20026;-67
2024/03/28 03:11:27;;;;;;;1.45;1.25;;;9.90;80.50;;;;;;4973778;28;20094;-67
2024/03/28 03:13:53;;;;;;;1.70;1.45;;;9.90;80.50;;;;;;4988175;28;20030;-67
2024/03/28 03:16:18;;;;;;;1.42;0.98;;;9.80;80.50;;;;;;4991617;28;20460;-67
2024/03/28 03:18:44;;;;;;;1.83;1.13;;;9.90;80.60;;;;;;4990806;28;20084;-67
2024/03/28 03:21:10;;;;;;;1.55;1.00;;;9.90;80.50;;;;;;4974136;28;20035;-67
2024/03/28 03:23:37;;;;;;;1.40;1.08;;;9.90;80.50;;;;;;4971473;28;20548;-67
2024/03/28 03:26:30;;;;;;;5.07;1.02;;;9.90;80.40;;;;;;4969736;28;20042;-67
2024/03/28 03:34:36;;;;;;;2.13;1.15;;;9.90;80.40;;;;;;4990399;28;20046;-64
2024/03/28 03:37:15;;;;;;;2.45;1.05;;;9.90;80.40;;;;;;4973674;28;20030;-64
2024/03/28 03:39:41;;;;;;;1.35;0.90;;;9.90;80.30;;;;;;4969411;28;20467;-64
2024/03/28 03:42:08;;;;;;;2.65;1.67;;;9.90;80.30;;;;;;4987124;28;20025;-64
2024/03/28 03:44:34;;;;;;;1.50;0.80;;;9.90;80.30;;;;;;4961698;28;20069;-64
2024/03/28 03:47:01;;;;;;;1.33;1.05;;;9.90;80.30;;;;;;4991491;28;20061;-65
2024/03/28 03:49:26;;;;;;;2.78;0.88;;;9.90;80.30;;;;;;4990355;28;20077;-64
2024/03/28 03:51:52;;;;;;;1.50;1.10;;;9.90;80.40;;;;;;4990342;28;20500;-64
2024/03/28 03:54:18;;;;;;;2.30;1.10;;;9.90;80.40;;;;;;4974004;28;20076;-64
2024/03/28 03:56:44;;;;;;;1.80;1.17;;;9.90;80.40;;;;;;4988784;28;20019;-64
2024/03/28 03:59:10;;;;;;;1.58;1.00;;;9.90;80.40;;;;;;4989399;28;20030;-65
2024/03/28 04:01:36;;;;;;;1.35;0.82;;;9.90;80.40;;;;;;4990869;28;20022;-65
2024/03/28 04:04:04;;;;;;;2.45;1.02;;;9.90;80.40;;;;;;4990217;28;20133;-67
2024/03/28 04:06:30;;;;;;;1.85;1.33;;;9.90;80.40;;;;;;4990362;28;20030;-67
2024/03/28 04:08:56;;;;;;;1.65;1.25;;;9.80;80.40;;;;;;4990313;28;20468;-67
2024/03/28 04:11:22;;;;;;;1.77;0.80;;;9.80;80.40;;;;;;4973177;28;20551;-67
2024/03/28 04:13:48;;;;;;;1.27;1.00;;;9.80;80.50;;;;;;4973121;28;20448;-67
2024/03/28 04:16:13;;;;;;;1.95;1.10;;;9.80;80.40;;;;;;4990988;28;20037;-67
2024/03/28 04:18:39;;;;;;;2.22;0.80;;;9.70;80.40;;;;;;4972108;28;20030;-67
2024/03/28 04:21:05;;;;;;;1.05;0.60;;;9.70;80.40;;;;;;4989925;28;20034;-67
2024/03/28 04:23:31;;;;;;;3.65;1.30;;;9.70;80.40;;;;;;4971434;28;20116;-64
2024/03/28 04:25:58;;;;;;;1.85;1.08;;;9.60;80.40;;;;;;4988245;28;20046;-67
2024/03/28 04:28:24;;;;;;;3.10;0.90;;;9.60;80.40;;;;;;4990124;28;20485;-67
2024/03/28 04:30:50;;;;;;;2.10;1.15;;;9.60;80.40;;;;;;4990506;28;20448;-67
2024/03/28 04:33:17;;;;;;;2.15;1.17;;;9.60;80.40;;;;;;4969724;28;20065;-67
2024/03/28 04:35:45;;;;;;;1.75;1.30;;;9.60;80.40;;;;;;4972407;28;20030;-67
2024/03/28 04:38:11;;;;;;;1.95;1.13;;;9.50;80.40;;;;;;4982870;28;20015;-67
2024/03/28 04:40:37;;;;;;;2.08;1.23;;;9.50;80.40;;;;;;4985414;28;20023;-67
2024/03/28 04:43:03;;;;;;;1.88;1.17;;;9.50;80.50;;;;;;4989434;28;20022;-67
2024/03/28 04:45:29;;;;;;;4.63;1.95;;;9.40;80.60;;;;;;4969221;28;20109;-67
2024/03/28 04:47:55;;;;;;;1.58;1.15;;;9.40;80.60;;;;;;4969662;28;20030;-67
2024/03/28 04:50:21;;;;;;;7.75;1.75;;;9.40;80.60;;;;;;4988912;28;20472;-67
2024/03/28 04:52:47;;;;;;;2.55;1.20;;;9.40;80.60;;;;;;4965731;28;20057;-67
2024/03/28 04:55:14;;;;;;;3.35;2.22;;;9.40;80.60;;;;;;4969473;28;20026;-67
2024/03/28 04:57:40;;;;;;;2.88;1.67;;;9.30;80.50;;;;;;4969381;28;20034;-67
2024/03/28 05:00:08;;;;;;;2.90;1.58;;;9.30;80.50;;;;;;4966022;28;20062;-67
2024/03/28 05:02:37;;;;;;;4.82;1.77;;;9.30;80.60;;;;;;4968051;28;20054;-67
2024/03/28 05:05:04;;;;;;;4.45;1.60;;;9.30;80.60;;;;;;4967923;28;20396;-64
2024/03/28 05:07:31;;;;;;;3.15;1.83;;;9.30;80.60;;;;;;4970004;28;20081;-64
2024/03/28 05:09:56;;;;;;;3.40;1.77;;;9.20;80.50;;;;;;4968840;28;20038;-64
2024/03/28 05:12:23;;;;;;;2.30;1.27;;;9.20;80.60;;;;;;4969033;28;20035;-64
2024/03/28 05:14:49;;;;;;;3.72;2.03;;;9.20;80.70;;;;;;4961691;28;20118;-67
2024/03/28 05:17:14;;;;;;;2.75;1.60;;;9.20;80.70;;;;;;4962939;28;20459;-67
2024/03/28 05:19:40;;;;;;;2.22;1.58;;;9.10;80.70;;;;;;4967174;28;20022;-67
2024/03/28 05:22:07;;;;;;;1.67;1.30;;;9.10;80.70;;;;;;4967560;28;20035;-67
2024/03/28 05:24:34;;;;;;;2.00;1.13;;;9.20;80.70;;;;;;4966867;28;20488;-67
2024/03/28 05:27:00;;;;;;;3.17;1.55;;;9.10;80.70;;;;;;4970329;28;20027;-67
2024/03/28 05:29:26;;;;;;;1.55;1.13;;;9.10;80.70;;;;;;4969527;28;20021;-67
2024/03/28 05:31:52;;;;;;;2.35;1.23;;;9.10;80.60;;;;;;4968983;28;20110;-67
2024/03/28 05:34:17;;;;;;;1.95;1.20;;;9.10;80.70;;;;;;4969008;28;20037;-67
2024/03/28 05:36:43;;;;;;;3.22;2.08;;;9.00;80.70;;;;;;4969028;28;20042;-67
2024/03/28 05:39:09;;;;;;;2.90;1.80;;;9.00;80.80;;;;;;4969735;28;20027;-67
2024/03/28 05:41:35;;;;;;;2.15;1.58;;;9.10;80.80;;;;;;4969199;28;20031;-67
2024/03/28 05:44:02;;;;;;;2.97;1.58;;;9.00;80.70;;;;;;4969990;28;20019;-67
2024/03/28 05:46:27;;;;;;;2.63;1.05;;;9.00;80.70;;;;;;4969927;28;20030;-67
2024/03/28 05:48:54;;;;;;;2.60;1.30;;;9.00;80.60;;;;;;4969334;28;20444;-67
2024/03/28 05:51:20;;;;;;;2.60;1.45;;;9.00;80.70;;;;;;4974944;28;20536;-66
2024/03/28 05:53:48;;;;;;;3.45;1.63;;;9.00;80.70;;;;;;4987002;28;20481;-66
2024/03/28 05:56:18;;;;;;;1.90;1.33;;;9.00;80.70;;;;;;4986235;28;20015;-67
2024/03/28 05:58:44;;;;;;;1.63;1.20;;;9.00;80.70;;;;;;4986114;28;20026;-67
2024/03/28 06:01:10;;;;;;;1.55;1.15;;;9.10;80.70;;;;;;4977999;28;20089;-66
2024/03/28 06:03:36;;;;;;;3.42;1.17;;;9.10;81.20;;;;;;4986704;28;20038;-66
2024/03/28 06:06:02;;;;;;;2.22;1.00;;;9.10;80.50;;;;;;4969727;28;20612;-66
2024/03/28 06:08:27;;;;;;;2.30;1.45;;;9.10;80.50;;;;;;4981994;28;20400;-66
2024/03/28 06:10:53;;;;;;;1.40;0.73;;;9.10;80.40;;;;;;4989286;28;20038;-65
2024/03/28 06:13:21;;;;;;;2.08;1.08;;;9.20;80.50;;;;;;4989323;28;20512;-65
2024/03/28 06:15:46;;;;;;;1.83;1.35;;;9.20;81.10;;;;;;4988406;28;20057;-65
2024/03/28 06:18:12;;;;;;;4.63;1.48;;;9.20;80.50;;;;;;4957144;28;20030;-65
2024/03/28 06:20:41;;;;;;;2.50;1.35;;;9.30;80.50;;;;;;4966356;28;20470;-66
2024/03/28 06:23:07;;;;;;;3.50;1.52;;;9.30;80.40;;;;;;4992415;28;20033;-66
2024/03/28 06:25:39;;;;;;;1.83;0.88;;;9.40;80.40;;;;;;4987000;28;20038;-66
2024/03/28 06:28:11;;;;;;;2.13;1.00;;;9.40;80.40;;;;;;4992005;28;20037;-67
2024/03/28 06:30:40;;;;;;;3.42;0.82;;;9.40;80.30;;;;;;4992966;28;20034;-66
2024/03/28 06:33:06;;;;;;;1.70;0.80;;;9.40;80.40;;;;;;4991664;28;20030;-66
2024/03/28 06:35:31;;;;;;;1.70;1.05;;;9.50;81.00;;;;;;4993019;28;20444;-65
2024/03/28 06:37:57;;;;;;;2.20;1.60;;;9.50;80.30;;;;;;4973637;28;20472;-66
2024/03/28 06:40:23;;;;;;;1.75;1.38;;;9.50;80.20;;;;;;4992761;28;20030;-66
2024/03/28 06:42:48;;;;;;;1.23;0.77;;;9.60;80.20;;;;;;4970715;28;20099;-66
2024/03/28 06:45:14;;;;;;;1.50;1.00;;;9.60;80.20;;;;;;4992641;28;20065;-66
2024/03/28 06:47:39;;;;;;;1.30;1.08;;;9.60;80.20;;;;;;4991831;28;20147;-66
2024/03/28 06:50:05;;;;;;;2.05;0.93;;;9.60;80.20;;;;;;4988752;28;20539;-66
2024/03/28 06:52:31;;;;;;;2.15;1.42;;;9.60;80.10;;;;;;4987138;28;20115;-66
2024/03/28 06:54:56;;;;;;;1.75;1.10;;;9.70;80.00;;;;;;4970451;28;20101;-66
2024/03/28 06:57:23;;;;;;;1.20;1.10;;;9.70;80.00;;;;;;4991167;28;20034;-66
2024/03/28 06:59:49;;;;;;;2.33;1.10;;;9.70;79.90;;;;;;4974377;28;20062;-66
2024/03/28 07:02:15;;;;;;;1.88;1.20;;;9.80;80.00;;;;;;4972551;28;20097;-66
2024/03/28 07:04:41;;;;;;;1.83;1.15;;;9.90;79.80;;;;;;4991193;28;20583;-66
2024/03/28 07:07:06;;;;;;;2.63;1.05;;;10.00;79.70;;;;;;4974848;28;20037;-66
2024/03/28 07:09:32;;;;;;;2.72;1.63;;;10.20;79.60;;;;;;4989381;28;20401;-66
2024/03/28 07:11:58;;;;;;;0.88;0.70;;;10.30;79.20;;;;;;4989333;28;20449;-66
2024/03/28 07:14:23;;;;;;;1.27;0.98;;;10.40;79.00;;;;;;4992029;28;20037;-66
2024/03/28 07:16:49;;;;;;;1.23;1.00;;;10.50;79.40;;;;;;4985393;28;20037;-66
2024/03/28 07:19:15;;;;;;;1.33;1.00;;;10.50;78.40;;;;;;4990870;28;20032;-66
2024/03/28 07:21:41;;;;;;;3.10;1.55;;;10.50;78.40;;;;;;4985330;28;20055;-67
2024/03/28 07:24:07;;;;;;;2.85;0.90;;;10.50;78.40;;;;;;4990361;28;20030;-66
2024/03/28 07:26:32;;;;;;;1.88;1.40;;;10.60;78.40;;;;;;4985779;28;20037;-67
2024/03/28 07:28:58;;;;;;;1.52;0.80;;;10.70;78.30;;;;;;4971277;28;20081;-66
2024/03/28 07:31:24;;;;;;;0.98;0.77;;;10.70;78.10;;;;;;4991250;28;20038;-67
2024/03/28 07:33:50;;;;;;;2.30;1.00;;;10.70;78.00;;;;;;4990485;28;20066;-66
2024/03/28 07:36:18;;;;;;;1.10;1.00;;;10.80;77.90;;;;;;4987954;28;20030;-66
2024/03/28 07:38:44;;;;;;;1.52;1.15;;;10.90;77.90;;;;;;4987600;28;20520;-67
2024/03/28 07:41:09;;;;;;;3.67;1.30;;;11.00;77.70;;;;;;4983946;28;20030;-66
2024/03/28 07:43:35;;;;;;;1.65;1.05;;;11.10;77.40;;;;;;4973112;28;20200;-66
2024/03/28 07:46:02;;;;;;;1.38;0.73;;;11.10;77.30;;;;;;4991073;28;20392;-66
2024/03/28 07:48:28;;;;;;;1.70;1.10;;;11.20;77.20;;;;;;4990725;28;20037;-66
2024/03/28 07:51:00;;;;;;;0.88;0.70;;;11.10;77.00;;;;;;4973329;28;20042;-65
2024/03/28 07:53:28;;;;;;;1.38;0.80;;;11.10;76.80;;;;;;4990551;28;20042;-66
2024/03/28 07:55:53;;;;;;;0.90;0.80;;;11.00;76.90;;;;;;4990904;28;20388;-66
2024/03/28 07:58:20;;;;;;;0.88;0.68;;;11.00;76.90;;;;;;4989202;28;20041;-66
2024/03/28 08:00:45;;;;;;;1.27;0.70;;;11.00;77.00;;;;;;4991264;28;20360;-66
2024/03/28 08:03:14;;;;;;;0.82;0.75;;;11.00;76.90;;;;;;4973015;28;20038;-66
2024/03/28 08:05:40;;;;;;;1.40;0.77;;;11.00;76.80;;;;;;4988309;28;20109;-66
2024/03/28 08:08:06;;;;;;;2.70;1.02;;;10.90;76.90;;;;;;4990578;28;20169;-66
2024/03/28 08:10:33;;;;;;;1.92;1.05;;;10.90;76.80;;;;;;4990678;28;20026;-66
2024/03/28 08:12:58;;;;;;;1.55;1.05;;;10.90;76.60;;;;;;4990563;28;20042;-67
2024/03/28 08:15:27;;;;;;;0.80;0.70;;;10.80;76.50;;;;;;4990314;28;20092;-66
2024/03/28 08:17:53;;;;;;;0.68;0.50;;;10.80;76.50;;;;;;4972870;28;20030;-66
2024/03/28 08:20:20;;;;;;;2.00;1.10;;;10.90;76.50;;;;;;4973402;28;20511;-66
2024/03/28 08:22:47;;;;;;;1.17;0.65;;;10.80;76.30;;;;;;4990272;28;20100;-66
2024/03/28 08:25:13;;;;;;;0.98;0.70;;;10.80;76.30;;;;;;4990044;28;20023;-66
2024/03/28 08:27:39;;;;;;;1.85;0.80;;;10.80;76.40;;;;;;4962709;28;20030;-65
2024/03/28 08:30:06;;;;;;;1.65;0.80;;;10.80;76.30;;;;;;4972206;28;20152;-65
2024/03/28 08:32:35;;;;;;;1.17;0.68;;;10.80;76.40;;;;;;4953411;28;20557;-65
2024/03/28 08:35:02;;;;;;;0.88;0.60;;;10.80;76.50;;;;;;4982721;28;20034;-65
2024/03/28 08:37:27;;;;;;;1.50;0.88;;;10.80;76.60;;;;;;4967030;28;20047;-66
2024/03/28 08:39:53;;;;;;;1.25;0.70;;;10.70;76.90;;;;;;4989961;28;20396;-66
2024/03/28 08:42:19;;;;;;;1.38;0.70;;;10.70;77.20;;;;;;4987278;28;20563;-66
2024/03/28 08:44:45;;;;;;;1.40;0.73;;;10.60;77.40;;;;;;4989855;28;20032;-66
2024/03/28 08:47:11;;;;;;;2.28;1.45;;;10.60;77.60;;;;;;4985375;28;20495;-66
2024/03/28 08:49:38;;;;;;;0.95;0.88;;;10.50;77.80;;;;;;4980876;28;20022;-66
2024/03/28 08:52:04;;;;;;;0.73;0.70;;;10.50;78.10;;;;;;4983082;28;20109;-65
2024/03/28 08:54:30;;;;;;;1.10;0.57;;;10.40;78.30;;;;;;4988249;28;20030;-63
2024/03/28 08:56:57;;;;;;;1.85;0.90;;;10.40;78.40;;;;;;4990270;28;20035;-63
2024/03/28 08:59:22;;;;;;;1.38;0.80;;;10.40;78.70;;;;;;4989082;28;20046;-65
2024/03/28 09:01:49;;;;;;;0.88;0.60;;;10.30;78.70;;;;;;4984314;28;20046;-66
2024/03/28 09:04:19;;;;;;;1.98;0.70;;;10.40;78.90;;;;;;4982304;28;20034;-67
2024/03/28 09:06:46;;;;;;;1.10;0.65;;;10.40;78.80;;;;;;4965697;28;20496;-65
2024/03/28 09:09:12;;;;;;;0.77;0.60;;;10.30;78.90;;;;;;4985632;28;20031;-67
2024/03/28 09:11:38;;;;;;;2.22;0.60;;;10.30;79.20;;;;;;4988272;28;20040;-64
2024/03/28 09:14:04;;;;;;;1.73;0.85;;;10.30;79.20;;;;;;4971347;28;20046;-65
2024/03/28 09:16:31;;;;;;;1.52;0.70;;;10.30;79.40;;;;;;4989147;28;20034;-65
2024/03/28 09:18:57;;;;;;;1.17;0.95;;;10.30;79.60;;;;;;4986999;28;20033;-65
2024/03/28 09:21:22;;;;;;;0.75;0.50;;;10.30;79.60;;;;;;4971280;28;20034;-63
2024/03/28 09:23:48;;;;;;;0.43;0.35;;;10.30;79.60;;;;;;4971891;28;20073;-64
2024/03/28 09:26:14;;;;;;;1.85;0.73;;;10.40;79.60;;;;;;4989284;28;20035;-62
2024/03/28 09:28:39;;;;;;;1.25;0.52;;;10.40;79.50;;;;;;4987621;28;20041;-62
2024/03/28 09:31:06;;;;;;;0.50;0.50;;;10.40;79.70;;;;;;4987514;28;20547;-63
2024/03/28 09:33:32;;;;;;;1.00;0.52;;;10.40;79.90;;;;;;4963863;28;20034;-64
2024/03/28 09:36:01;;;;;;;1.20;0.70;;;10.40;79.90;;;;;;4978082;28;20030;-66
2024/03/28 09:38:27;;;;;;;1.65;0.40;;;10.40;79.90;;;;;;4985578;28;20374;-66
2024/03/28 09:40:54;;;;;;;0.82;0.50;;;10.40;80.00;;;;;;4982342;28;20029;-66
2024/03/28 09:43:19;;;;;;;0.50;0.50;;;10.40;80.10;;;;;;4978259;28;20031;-67
2024/03/28 09:45:45;;;;;;;0.73;0.55;;;10.30;80.30;;;;;;4979134;28;20163;-66
2024/03/28 09:48:15;;;;;;;3.08;0.52;;;10.40;80.30;;;;;;4976816;28;20460;-67
2024/03/28 09:50:42;;;;;;;0.50;0.50;;;10.50;80.50;;;;;;4988469;28;20030;-67
2024/03/28 09:53:09;;;;;;;1.17;0.73;;;10.50;80.70;;;;;;4988133;28;20378;-67
2024/03/28 09:55:38;;;;;;;0.88;0.50;;;10.40;80.80;;;;;;4972757;28;20505;-66
2024/03/28 09:58:05;;;;;;;1.23;0.70;;;10.40;80.90;;;;;;4990839;28;20066;-67
2024/03/28 10:00:30;;;;;;;0.52;0.50;;;10.40;81.00;;;;;;4975809;28;20469;-67
2024/03/28 10:03:11;;;;;;;0.45;0.40;;;10.50;81.00;;;;;;4989379;28;20045;-67
2024/03/28 10:05:37;;;;;;;0.40;0.40;;;10.50;80.90;;;;;;4990227;28;20092;-66
2024/03/28 10:08:05;;;;;;;0.60;0.60;;;10.50;80.80;;;;;;4984375;28;20035;-66
2024/03/28 10:10:32;;;;;;;2.17;0.88;;;10.50;80.90;;;;;;4982854;28;20594;-67
2024/03/28 10:12:59;;;;;;;0.40;0.40;;;10.50;80.90;;;;;;4984304;28;20113;-67
2024/03/28 10:15:26;;;;;;;1.27;0.77;;;10.40;81.00;;;;;;4977878;28;20121;-66
2024/03/28 10:17:59;;;;;;;1.23;0.75;;;10.50;81.30;;;;;;4968035;28;20026;-67
2024/03/28 10:20:25;;;;;;;0.50;0.47;;;10.50;81.30;;;;;;4967043;28;20491;-67
2024/03/28 10:22:53;;;;;;;0.98;0.88;;;10.50;81.30;;;;;;4965912;28;20404;-68
2024/03/28 10:25:21;;;;;;;0.93;0.60;;;10.50;81.60;;;;;;4966436;28;20034;-68
2024/03/28 10:27:47;;;;;;;3.65;1.17;;;10.60;81.60;;;;;;4966478;28;20030;-68
2024/03/28 10:30:23;;;;;;;0.90;0.60;;;10.50;81.70;;;;;;4971234;28;20065;-68
2024/03/28 10:32:59;;;;;;;0.50;0.50;;;10.50;81.80;;;;;;4988448;28;20089;-68
2024/03/28 10:35:25;;;;;;;0.93;0.70;;;10.40;81.90;;;;;;4990820;28;20034;-68
2024/03/28 10:38:07;;;;;;;1.17;0.85;;;10.40;82.10;;;;;;4987290;28;20030;-68
2024/03/28 10:40:37;;;;;;;0.60;0.60;;;10.30;82.40;;;;;;4987422;28;20026;-68
2024/03/28 10:43:08;;;;;;;1.90;0.75;;;10.30;82.60;;;;;;4988347;28;20029;-68
2024/03/28 10:45:38;;;;;;;1.27;0.60;;;10.30;82.80;;;;;;4988735;28;20037;-68
2024/03/28 10:48:13;;;;;;;0.82;0.70;;;10.20;83.00;;;;;;4986620;28;20050;-68
2024/03/28 10:51:11;;;;;;;1.40;0.75;;;10.10;83.30;;;;;;4986908;28;20389;-68
2024/03/28 10:53:39;;;;;;;0.60;0.60;;;10.10;83.70;;;;;;4944276;29;20055;-68
2024/03/28 10:56:12;;;;;;;0.85;0.50;;;10.00;83.70;;;;;;4949382;29;20505;-68
2024/03/28 10:58:38;;;;;;;0.30;0.30;;;10.00;83.60;;;;;;4945814;29;20442;-69
2024/03/28 11:01:07;;;;;;;0.95;0.50;;;10.10;83.60;;;;;;4951674;28;20077;-68
2024/03/28 11:03:33;;;;;;;0.40;0.38;;;10.10;83.50;;;;;;4946007;28;20586;-68
2024/03/28 11:05:59;;;;;;;0.47;0.43;;;10.10;83.40;;;;;;4940415;28;20153;-68
2024/03/28 11:08:28;;;;;;;0.55;0.40;;;10.10;83.50;;;;;;4944271;28;20039;-68
2024/03/28 11:10:56;;;;;;;0.77;0.70;;;10.10;83.40;;;;;;4951112;28;20035;-68
2024/03/28 11:13:23;;;;;;;0.90;0.80;;;10.20;83.40;;;;;;4949995;28;20388;-68
2024/03/28 11:16:06;;;;;;;0.40;0.40;;;10.20;83.40;;;;;;4947864;29;20035;-68
2024/03/28 11:18:32;;;;;;;0.55;0.55;;;10.20;83.50;;;;;;4951051;28;20085;-68
2024/03/28 11:20:59;;;;;;;0.90;0.68;;;10.30;83.50;;;;;;4950674;28;20023;-68
2024/03/28 11:23:25;;;;;;;0.60;0.60;;;10.30;83.40;;;;;;4953008;28;20050;-68
2024/03/28 11:26:03;;;;;;;1.00;0.77;;;10.30;83.40;;;;;;4941464;28;20035;-68
2024/03/28 11:28:30;;;;;;;1.67;0.60;;;10.40;83.50;;;;;;4949655;29;20027;-68
2024/03/28 11:30:58;;;;;;;1.00;0.50;;;10.40;83.40;;;;;;4947168;29;20039;-68
2024/03/28 11:33:43;;;;;;;1.30;0.98;;;10.40;83.50;;;;;;4947231;28;20043;-68
2024/03/28 11:36:09;;;;;;;1.13;0.68;;;10.40;83.50;;;;;;4940172;29;20027;-68
2024/03/28 11:38:36;;;;;;;1.88;1.23;;;10.40;83.60;;;;;;4939839;29;20123;-68
2024/03/28 11:41:03;;;;;;;1.35;0.80;;;10.40;83.80;;;;;;4945284;28;20027;-68
2024/03/28 11:43:31;;;;;;;1.88;1.15;;;10.50;83.90;;;;;;4943649;28;20040;-68
2024/03/28 11:46:01;;;;;;;1.00;0.70;;;10.60;83.80;;;;;;4946167;28;20050;-68
2024/03/28 11:48:33;;;;;;;2.13;0.85;;;10.60;83.70;;;;;;4947253;29;20040;-68
2024/03/28 11:51:03;;;;;;;2.25;0.90;;;10.70;83.50;;;;;;4951749;28;20034;-68
2024/03/28 11:53:29;;;;;;;2.47;1.02;;;10.80;83.30;;;;;;4987319;28;20026;-68
2024/03/28 11:55:55;;;;;;;3.28;1.10;;;10.90;83.20;;;;;;4986776;28;20037;-68
2024/03/28 11:58:25;;;;;;;1.17;0.82;;;11.00;83.00;;;;;;4984836;28;20026;-68
2024/03/28 12:01:03;;;;;;;2.10;1.13;;;11.00;82.80;;;;;;4986500;28;20561;-68
2024/03/28 12:03:29;;;;;;;2.45;1.00;;;11.00;82.30;;;;;;4978182;28;20030;-68
2024/03/28 12:05:57;;;;;;;1.55;1.10;;;11.00;82.30;;;;;;4987809;28;20037;-67
2024/03/28 12:08:28;;;;;;;1.30;1.15;;;11.00;82.50;;;;;;4984589;28;20030;-65
2024/03/28 12:11:06;;;;;;;1.80;1.30;;;11.10;82.10;;;;;;4985083;28;20077;-68
2024/03/28 12:13:36;;;;;;;3.55;1.42;;;11.30;81.40;;;;;;4981404;28;20072;-68
2024/03/28 12:16:03;;;;;;;8.57;1.90;;;11.40;80.70;;;;;;4977197;28;20044;-68
2024/03/28 12:18:33;;;;;;;9.32;2.17;;;11.60;79.80;;;;;;4961522;28;20026;-68
2024/03/28 12:21:05;;;;;;;2.30;1.65;;;11.80;80.00;;;;;;4983554;28;20465;-68
2024/03/28 12:23:33;;;;;;;2.30;1.60;;;12.00;78.80;;;;;;4986477;28;20026;-69
2024/03/28 12:25:59;;;;;;;2.05;1.02;;;12.20;77.00;;;;;;4978347;28;20034;-69
2024/03/28 12:28:24;;;;;;;3.30;0.98;;;12.30;76.40;;;;;;4965123;28;20038;-65
2024/03/28 12:30:51;;;;;;;2.13;1.35;;;12.50;75.80;;;;;;4980909;28;20105;-66
2024/03/28 12:33:17;;;;;;;1.80;1.20;;;12.70;75.30;;;;;;4978694;28;20030;-68
2024/03/28 12:35:44;;;;;;;1.85;1.40;;;12.90;74.90;;;;;;4988530;28;20073;-68
2024/03/28 12:38:17;;;;;;;1.50;1.15;;;13.10;74.20;;;;;;4984585;28;20034;-68
2024/03/28 12:40:44;;;;;;;1.35;1.20;;;13.20;73.30;;;;;;4980216;28;20037;-68
2024/03/28 12:43:14;;;;;;;3.05;1.55;;;13.30;72.90;;;;;;4969586;28;20026;-68
2024/03/28 12:45:40;;;;;;;1.40;1.30;;;13.50;72.20;;;;;;4985163;28;20034;-68
2024/03/28 12:48:07;;;;;;;2.30;1.20;;;13.60;72.10;;;;;;4987426;28;20014;-68
2024/03/28 12:50:34;;;;;;;2.05;1.10;;;13.80;71.30;;;;;;4982125;28;20030;-68
2024/03/28 12:53:00;;;;;;;1.95;1.35;;;13.80;69.90;;;;;;4984998;28;20168;-65
2024/03/28 12:55:25;;;;;;;1.20;1.10;;;13.80;69.50;;;;;;4984438;28;20440;-65
2024/03/28 12:57:51;;;;;;;1.38;1.15;;;13.70;68.80;;;;;;4986549;28;20149;-68